createdAt,value
2019-05-22T00:00:23.919Z,12.97
2019-05-22T00:01:23.879Z,12.97
2019-05-22T00:02:23.893Z,12.97
2019-05-22T00:03:23.991Z,12.97
2019-05-22T00:04:23.849Z,13.01
2019-05-22T00:05:23.862Z,12.97
2019-05-22T00:06:23.826Z,12.97
2019-05-22T00:07:23.824Z,12.97
2019-05-22T00:08:23.810Z,12.96
2019-05-22T00:09:23.957Z,12.97
2019-05-22T00:10:23.781Z,12.97
2019-05-22T00:11:23.760Z,12.96
2019-05-22T00:12:23.760Z,12.97
2019-05-22T00:13:23.770Z,12.96
2019-05-22T00:14:23.748Z,12.96
2019-05-22T00:15:23.851Z,12.96
2019-05-22T00:16:23.744Z,12.97
2019-05-22T00:17:23.740Z,12.95
2019-05-22T00:18:23.803Z,12.97
2019-05-22T00:19:23.760Z,12.96
2019-05-22T00:20:23.691Z,12.96
2019-05-22T00:21:23.663Z,12.97
2019-05-22T00:22:23.686Z,12.96
2019-05-22T00:23:23.682Z,12.93
2019-05-22T00:24:23.734Z,12.95
2019-05-22T00:25:23.646Z,12.93
2019-05-22T00:26:23.639Z,12.93
2019-05-22T00:27:23.593Z,12.95
2019-05-22T00:28:23.603Z,12.93
2019-05-22T00:29:23.696Z,12.92
2019-05-22T00:30:23.590Z,12.93
2019-05-22T00:31:23.541Z,12.95
2019-05-22T00:32:23.549Z,12.92
2019-05-22T00:33:23.522Z,12.92
2019-05-22T00:34:23.623Z,12.92
2019-05-22T00:35:23.533Z,12.93
2019-05-22T00:36:23.599Z,12.92
2019-05-22T00:37:23.499Z,12.92
2019-05-22T00:38:23.478Z,12.90
2019-05-22T00:39:23.482Z,12.95
2019-05-22T00:40:23.521Z,12.95
2019-05-22T00:41:23.454Z,12.93
2019-05-22T00:42:23.454Z,12.93
2019-05-22T00:43:23.413Z,12.90
2019-05-22T00:44:23.443Z,12.92
2019-05-22T00:45:23.513Z,12.90
2019-05-22T00:46:23.516Z,12.90
2019-05-22T00:47:23.379Z,12.90
2019-05-22T00:48:23.386Z,12.90
2019-05-22T00:49:23.380Z,12.92
2019-05-22T00:50:23.350Z,12.92
2019-05-22T00:51:23.343Z,12.90
2019-05-22T00:52:23.336Z,12.90
2019-05-22T00:53:23.344Z,12.90
2019-05-22T00:54:23.318Z,12.92
2019-05-22T00:55:23.304Z,12.89
2019-05-22T00:56:23.374Z,12.92
2019-05-22T00:57:23.394Z,12.92
2019-05-22T00:58:23.258Z,12.90
2019-05-22T00:59:23.263Z,12.90
2019-05-22T01:00:23.239Z,12.89
2019-05-22T01:01:23.234Z,12.89
2019-05-22T01:02:23.342Z,12.86
2019-05-22T01:03:23.225Z,12.86
2019-05-22T02:21:15.205Z,12.46
2019-05-22T02:22:15.188Z,12.46
2019-05-22T02:23:15.215Z,12.45
2019-05-22T02:24:15.207Z,12.42
2019-05-22T02:25:15.243Z,12.42
2019-05-22T02:26:15.175Z,12.41
2019-05-22T02:27:15.145Z,12.39
2019-05-22T02:28:15.155Z,12.41
2019-05-22T02:29:15.129Z,12.39
2019-05-22T02:30:15.162Z,12.41
2019-05-22T02:31:15.103Z,12.39
2019-05-22T02:32:15.087Z,12.41
2019-05-22T02:33:15.086Z,12.39
2019-05-22T02:34:15.121Z,12.41
2019-05-22T02:35:15.077Z,12.38
2019-05-22T02:36:15.062Z,12.39
2019-05-22T02:37:15.068Z,12.38
2019-05-22T02:38:15.031Z,12.38
2019-05-22T02:39:15.068Z,12.37
2019-05-22T02:40:15.023Z,12.35
2019-05-22T02:41:15.032Z,12.37
2019-05-22T02:42:15.013Z,12.35
2019-05-22T02:43:14.980Z,12.37
2019-05-22T02:44:14.956Z,12.35
2019-05-22T02:45:14.968Z,12.34
2019-05-22T02:46:14.957Z,12.34
2019-05-22T02:47:20.025Z,12.32
2019-05-22T02:48:15.938Z,12.29
2019-05-22T02:49:14.907Z,12.29
2019-05-22T02:50:14.942Z,12.29
2019-05-22T02:51:14.958Z,12.28
2019-05-22T02:52:14.887Z,12.28
2019-05-22T02:53:14.900Z,12.28
2019-05-22T02:54:14.869Z,12.24
2019-05-22T02:55:14.859Z,12.24
2019-05-22T02:56:14.852Z,12.24
2019-05-22T02:57:14.830Z,12.20
2019-05-22T02:58:14.812Z,12.20
2019-05-22T02:59:14.789Z,12.19
2019-05-22T03:00:14.808Z,12.19
2019-05-22T03:01:14.771Z,12.17
2019-05-22T03:02:14.881Z,12.16
2019-05-22T03:03:14.777Z,12.17
2019-05-22T03:04:14.768Z,12.16
2019-05-22T03:05:14.753Z,12.16
2019-05-22T03:06:14.738Z,12.17
2019-05-22T03:07:14.709Z,12.19
2019-05-22T03:08:14.699Z,12.19
2019-05-22T03:09:14.680Z,12.19
2019-05-22T03:10:14.697Z,12.19
2019-05-22T03:11:14.675Z,12.17
2019-05-22T03:12:14.661Z,12.20
2019-05-22T03:13:14.658Z,12.20
2019-05-22T03:14:14.662Z,12.17
2019-05-22T03:15:14.641Z,12.17
2019-05-22T03:16:14.640Z,12.16
2019-05-22T03:17:14.711Z,12.16
2019-05-22T03:18:14.614Z,12.16
2019-05-22T03:19:14.574Z,12.16
2019-05-22T03:20:14.559Z,12.14
2019-05-22T03:21:14.550Z,12.14
2019-05-22T03:22:14.570Z,12.12
2019-05-22T03:23:14.643Z,12.12
2019-05-22T03:24:14.550Z,12.14
2019-05-22T03:25:14.641Z,12.12
2019-05-22T03:26:14.534Z,12.12
2019-05-22T03:27:14.531Z,12.12
2019-05-22T03:28:14.478Z,12.10
2019-05-22T03:29:14.489Z,12.09
2019-05-22T03:30:14.461Z,12.07
2019-05-22T03:31:14.585Z,12.07
2019-05-22T03:32:14.476Z,12.09
2019-05-22T03:33:14.569Z,12.09
2019-05-22T03:34:14.425Z,12.10
2019-05-22T03:35:14.401Z,12.09
2019-05-22T03:36:14.412Z,12.10
2019-05-22T03:37:14.505Z,12.12
2019-05-22T03:38:14.543Z,12.10
2019-05-22T03:39:14.382Z,12.12
2019-05-22T03:40:14.350Z,12.10
2019-05-22T03:41:14.344Z,12.10
2019-05-22T03:42:14.352Z,12.09
2019-05-22T03:43:14.351Z,12.09
2019-05-22T03:44:14.456Z,12.07
2019-05-22T03:45:14.323Z,12.05
2019-05-22T03:46:14.312Z,12.05
2019-05-22T03:47:14.276Z,12.05
2019-05-22T03:48:14.261Z,12.02
2019-05-22T03:49:29.240Z,12.02
2019-05-22T03:50:15.264Z,12.02
2019-05-22T03:51:14.308Z,11.99
2019-05-22T03:52:14.226Z,11.99
2019-05-22T03:53:14.213Z,11.99
2019-05-22T03:54:14.255Z,11.98
2019-05-22T03:55:14.359Z,11.98
2019-05-22T03:56:14.203Z,11.96
2019-05-22T03:57:14.195Z,11.96
2019-05-22T03:58:14.161Z,11.98
2019-05-22T03:59:14.163Z,11.95
2019-05-22T04:00:14.275Z,11.98
2019-05-22T04:01:14.123Z,11.96
2019-05-22T04:02:14.145Z,11.98
2019-05-22T04:03:14.133Z,11.98
2019-05-22T04:04:14.105Z,11.98
2019-05-22T04:05:14.095Z,11.99
2019-05-22T04:06:14.192Z,11.96
2019-05-22T04:07:14.052Z,11.96
2019-05-22T04:08:14.043Z,11.96
2019-05-22T04:09:14.067Z,11.94
2019-05-22T04:10:14.053Z,11.94
2019-05-22T04:11:14.153Z,11.94
2019-05-22T04:12:14.024Z,11.90
2019-05-22T04:13:13.993Z,11.91
2019-05-22T04:14:14.003Z,11.91
2019-05-22T04:15:13.994Z,11.90
2019-05-22T04:16:13.992Z,11.90
2019-05-22T04:17:14.025Z,11.90
2019-05-22T04:18:13.961Z,11.91
2019-05-22T04:19:13.924Z,11.91
2019-05-22T04:20:13.921Z,11.90
2019-05-22T04:21:13.925Z,11.88
2019-05-22T04:22:13.912Z,11.91
2019-05-22T04:23:13.886Z,11.91
2019-05-22T04:24:13.875Z,11.90
2019-05-22T04:25:13.865Z,11.91
2019-05-22T04:26:13.917Z,11.91
2019-05-22T04:27:13.849Z,11.91
2019-05-22T04:28:13.825Z,11.90
2019-05-22T04:29:13.895Z,11.91
2019-05-22T04:30:13.819Z,11.90
2019-05-22T04:31:13.825Z,11.91
2019-05-22T04:32:13.810Z,11.94
2019-05-22T04:33:13.819Z,11.91
2019-05-22T04:34:13.794Z,11.94
2019-05-22T04:35:13.758Z,11.94
2019-05-22T04:36:13.767Z,11.95
2019-05-22T04:37:13.759Z,11.94
2019-05-22T04:38:13.726Z,11.94
2019-05-22T04:39:13.721Z,11.91
2019-05-22T04:40:13.706Z,11.94
2019-05-22T04:41:13.696Z,11.91
2019-05-22T04:42:13.696Z,11.91
2019-05-22T04:43:13.667Z,11.91
2019-05-22T04:44:13.670Z,11.91
2019-05-22T04:45:13.688Z,11.90
2019-05-22T04:46:13.650Z,11.90
2019-05-22T04:47:13.639Z,11.88
2019-05-22T04:48:13.629Z,11.86
2019-05-22T04:49:13.605Z,11.90
2019-05-22T04:50:13.599Z,11.90
2019-05-22T04:51:13.617Z,11.90
2019-05-22T04:52:13.585Z,11.90
2019-05-22T04:53:13.571Z,11.88
2019-05-22T04:54:13.557Z,11.86
2019-05-22T04:55:13.549Z,11.85
2019-05-22T04:56:13.541Z,11.83
2019-05-22T04:57:13.539Z,11.85
2019-05-22T04:58:13.506Z,11.83
2019-05-22T04:59:13.498Z,11.83
2019-05-22T05:00:13.488Z,11.82
2019-05-22T05:01:13.477Z,11.82
2019-05-22T05:02:13.482Z,11.82
2019-05-22T05:03:13.478Z,11.80
2019-05-22T05:04:13.450Z,11.79
2019-05-22T05:05:13.436Z,11.80
2019-05-22T05:06:13.428Z,11.79
2019-05-22T05:07:13.433Z,11.78
2019-05-22T05:08:13.527Z,11.78
2019-05-22T05:09:13.419Z,11.76
2019-05-22T05:10:13.407Z,11.76
2019-05-22T05:11:13.406Z,11.76
2019-05-22T05:12:13.407Z,11.76
2019-05-22T05:13:13.428Z,11.76
2019-05-22T05:14:13.347Z,11.78
2019-05-22T05:15:13.358Z,11.75
2019-05-22T05:16:13.347Z,11.75
2019-05-22T05:17:13.339Z,11.73
2019-05-22T05:18:13.307Z,11.73
2019-05-22T05:19:13.453Z,11.73
2019-05-22T05:20:22.055Z,11.72
2019-05-22T05:21:14.267Z,11.70
2019-05-22T05:22:13.291Z,11.72
2019-05-22T05:23:21.066Z,11.69
2019-05-22T05:24:13.267Z,11.72
2019-05-22T05:25:13.306Z,11.72
2019-05-22T05:26:13.245Z,11.72
2019-05-22T05:27:13.234Z,11.70
2019-05-22T05:28:13.227Z,11.72
2019-05-22T05:29:13.217Z,11.72
2019-05-22T05:30:13.196Z,11.72
2019-05-22T05:31:13.187Z,11.70
2019-05-22T05:32:13.177Z,11.69
2019-05-22T05:33:13.147Z,11.69
2019-05-22T05:34:13.259Z,11.69
2019-05-22T05:35:13.162Z,11.67
2019-05-22T05:36:13.239Z,11.69
2019-05-22T05:37:13.096Z,11.69
2019-05-22T05:38:13.103Z,11.67
2019-05-22T05:39:13.097Z,11.67
2019-05-22T05:40:13.116Z,11.67
2019-05-22T05:41:13.221Z,11.65
2019-05-22T05:42:13.063Z,11.64
2019-05-22T05:43:13.035Z,11.62
2019-05-22T05:44:13.034Z,11.60
2019-05-22T05:45:13.713Z,11.60
2019-05-22T05:46:13.013Z,11.57
2019-05-22T05:47:13.017Z,11.57
2019-05-22T05:48:13.100Z,11.58
2019-05-22T05:49:13.003Z,11.55
2019-05-22T05:50:12.987Z,11.57
2019-05-22T05:51:12.980Z,11.54
2019-05-22T05:52:12.981Z,11.54
2019-05-22T05:53:12.936Z,11.52
2019-05-22T05:54:13.040Z,11.52
2019-05-22T05:55:12.920Z,11.54
2019-05-22T05:56:12.920Z,11.57
2019-05-22T05:57:12.908Z,11.55
2019-05-22T05:58:12.900Z,11.55
2019-05-22T05:59:12.992Z,11.60
2019-05-22T06:00:12.868Z,11.58
2019-05-22T06:01:12.875Z,11.58
2019-05-22T06:02:12.858Z,11.57
2019-05-22T06:03:12.858Z,11.55
2019-05-22T06:04:12.820Z,11.54
2019-05-22T06:05:12.799Z,11.52
2019-05-22T06:06:12.808Z,11.51
2019-05-22T06:07:12.815Z,11.49
2019-05-22T06:08:12.791Z,11.51
2019-05-22T06:09:12.859Z,11.52
2019-05-22T06:10:12.799Z,11.54
2019-05-22T06:11:12.759Z,11.54
2019-05-22T06:12:12.755Z,11.51
2019-05-22T06:13:12.710Z,11.51
2019-05-22T06:14:12.700Z,11.49
2019-05-22T06:15:12.825Z,11.49
2019-05-22T06:16:12.740Z,11.51
2019-05-22T06:17:12.708Z,11.52
2019-05-22T06:18:12.693Z,11.49
2019-05-22T06:19:12.691Z,11.49
2019-05-22T06:20:12.682Z,11.49
2019-05-22T06:21:12.651Z,11.49
2019-05-22T06:22:12.640Z,11.51
2019-05-22T06:23:12.611Z,11.51
2019-05-22T06:24:12.618Z,11.51
2019-05-22T06:25:12.667Z,11.49
2019-05-22T06:26:12.597Z,11.49
2019-05-22T06:27:12.590Z,11.47
2019-05-22T06:28:12.558Z,11.47
2019-05-22T06:29:12.561Z,11.46
2019-05-22T06:30:12.650Z,11.46
2019-05-22T06:31:12.563Z,11.44
2019-05-22T06:32:12.532Z,11.43
2019-05-22T06:33:12.518Z,11.42
2019-05-22T06:34:12.479Z,11.39
2019-05-22T06:35:12.481Z,11.39
2019-05-22T06:36:12.604Z,11.37
2019-05-22T06:37:12.556Z,11.39
2019-05-22T06:38:12.453Z,11.36
2019-05-22T06:39:12.445Z,11.35
2019-05-22T06:40:12.439Z,11.33
2019-05-22T06:41:12.401Z,11.33
2019-05-22T06:42:12.438Z,11.35
2019-05-22T06:43:12.521Z,11.33
2019-05-22T06:44:12.416Z,11.35
2019-05-22T06:45:12.384Z,11.35
2019-05-22T06:46:12.381Z,11.36
2019-05-22T06:47:12.373Z,11.37
2019-05-22T06:48:12.475Z,11.39
2019-05-22T06:49:12.355Z,11.39
2019-05-22T06:50:12.342Z,11.42
2019-05-22T06:51:19.567Z,11.40
2019-05-22T06:52:13.422Z,11.42
2019-05-22T06:53:12.282Z,11.43
2019-05-22T06:54:12.302Z,11.44
2019-05-22T06:55:12.382Z,11.46
2019-05-22T06:56:12.259Z,11.43
2019-05-22T06:57:12.241Z,11.44
2019-05-22T06:58:12.255Z,11.47
2019-05-22T06:59:12.237Z,11.47
2019-05-22T07:00:15.036Z,11.49
2019-05-22T07:01:12.317Z,11.47
2019-05-22T07:02:12.228Z,11.47
2019-05-22T07:03:12.163Z,11.44
2019-05-22T07:04:12.262Z,11.43
2019-05-22T07:05:12.173Z,11.42
2019-05-22T07:06:12.163Z,11.42
2019-05-22T07:07:12.537Z,11.39
2019-05-22T07:08:12.146Z,11.39
2019-05-22T07:09:12.239Z,11.39
2019-05-22T07:10:12.104Z,11.40
2019-05-22T07:11:12.086Z,11.40
2019-05-22T07:12:12.073Z,11.42
2019-05-22T07:13:12.074Z,11.44
2019-05-22T07:14:12.093Z,11.44
2019-05-22T07:15:12.046Z,11.46
2019-05-22T07:16:12.051Z,11.47
2019-05-22T07:17:12.136Z,11.49
2019-05-22T07:18:13.115Z,11.49
2019-05-22T07:19:12.016Z,11.51
2019-05-22T07:20:12.024Z,11.47
2019-05-22T07:21:12.043Z,11.49
2019-05-22T07:22:11.954Z,11.51
2019-05-22T07:23:12.003Z,11.52
2019-05-22T07:24:11.938Z,11.54
2019-05-22T07:25:11.948Z,11.54
2019-05-22T07:26:11.936Z,11.55
2019-05-22T07:27:12.062Z,11.58
2019-05-22T07:28:11.928Z,11.61
2019-05-22T07:29:11.919Z,11.61
2019-05-22T07:30:11.890Z,11.62
2019-05-22T07:31:11.862Z,11.62
2019-05-22T07:32:11.854Z,11.67
2019-05-22T07:33:11.855Z,11.69
2019-05-22T07:34:11.855Z,11.69
2019-05-22T07:35:11.844Z,11.72
2019-05-22T07:36:16.481Z,11.72
2019-05-22T07:37:12.828Z,11.75
2019-05-22T07:38:11.797Z,11.75
2019-05-22T07:39:11.822Z,11.75
2019-05-22T07:40:11.818Z,11.76
2019-05-22T07:41:11.773Z,11.76
2019-05-22T07:42:11.736Z,11.75
2019-05-22T07:43:11.855Z,11.75
2019-05-22T07:44:11.726Z,11.78
2019-05-22T07:45:11.729Z,11.78
2019-05-22T07:46:11.730Z,11.78
2019-05-22T07:47:11.741Z,11.79
2019-05-22T07:48:11.857Z,11.79
2019-05-22T07:49:11.657Z,11.80
2019-05-22T07:50:11.677Z,11.83
2019-05-22T07:51:11.657Z,11.83
2019-05-22T07:52:11.638Z,11.82
2019-05-22T07:53:11.650Z,11.83
2019-05-22T07:54:11.606Z,11.82
2019-05-22T07:55:11.621Z,11.82
2019-05-22T07:56:11.634Z,11.80
2019-05-22T07:57:11.610Z,11.80
2019-05-22T07:58:11.678Z,11.80
2019-05-22T07:59:11.583Z,11.82
2019-05-22T08:00:11.538Z,11.80
2019-05-22T08:01:11.560Z,11.79
2019-05-22T08:02:11.625Z,11.76
2019-05-22T08:03:11.537Z,11.73
2019-05-22T08:04:11.655Z,11.75
2019-05-22T08:05:11.684Z,11.75
2019-05-22T08:06:11.516Z,11.75
2019-05-22T08:07:11.501Z,11.72
2019-05-22T08:08:11.479Z,11.75
2019-05-22T08:09:11.474Z,11.70
2019-05-22T08:10:11.569Z,11.70
2019-05-22T08:11:11.429Z,11.70
2019-05-22T08:12:11.421Z,11.72
2019-05-22T08:13:11.406Z,11.73
2019-05-22T08:14:11.534Z,11.73
2019-05-22T08:15:11.398Z,11.75
2019-05-22T08:16:11.482Z,11.75
2019-05-22T08:17:11.382Z,11.73
2019-05-22T08:18:11.380Z,11.76
2019-05-22T08:19:11.390Z,11.73
2019-05-22T08:20:11.319Z,11.65
2019-05-22T08:21:11.311Z,11.62
2019-05-22T08:22:11.360Z,11.62
2019-05-22T08:23:11.289Z,11.64
2019-05-22T08:24:11.423Z,11.62
2019-05-22T08:25:11.293Z,11.61
2019-05-22T08:26:11.309Z,11.62
2019-05-22T08:27:11.288Z,11.62
2019-05-22T08:28:11.260Z,11.67
2019-05-22T08:29:11.371Z,11.72
2019-05-22T08:30:11.250Z,11.75
2019-05-22T08:31:11.230Z,11.79
2019-05-22T08:32:11.195Z,11.83
2019-05-22T08:33:11.195Z,11.88
2019-05-22T08:34:11.174Z,11.95
2019-05-22T08:35:11.212Z,12.04
2019-05-22T08:36:11.170Z,12.10
2019-05-22T08:37:11.279Z,12.20
2019-05-22T08:38:11.129Z,12.32
2019-05-22T08:39:11.122Z,12.42
2019-05-22T08:40:11.111Z,12.53
2019-05-22T08:41:11.112Z,12.60
2019-05-22T08:42:11.101Z,12.70
2019-05-22T08:43:11.093Z,12.75
2019-05-22T08:44:16.030Z,12.79
2019-05-22T08:45:12.050Z,12.83
2019-05-22T08:46:11.186Z,12.85
2019-05-22T08:47:11.075Z,12.86
2019-05-22T08:48:11.034Z,12.89
2019-05-22T08:49:11.022Z,12.90
2019-05-22T08:50:11.022Z,12.92
2019-05-22T08:51:11.015Z,12.89
2019-05-22T08:52:22.984Z,12.86
2019-05-22T08:53:11.962Z,12.87
2019-05-22T08:54:10.997Z,12.86
2019-05-22T08:55:10.952Z,12.87
2019-05-22T08:56:10.927Z,12.85
2019-05-22T08:57:11.062Z,12.85
2019-05-22T08:58:11.055Z,12.87
2019-05-22T08:59:19.533Z,12.85
2019-05-22T09:00:12.519Z,12.79
2019-05-22T09:01:10.907Z,12.78
2019-05-22T09:02:10.866Z,12.75
2019-05-22T09:03:10.861Z,12.77
2019-05-22T09:04:10.989Z,12.82
2019-05-22T09:05:10.895Z,12.85
2019-05-22T09:06:11.071Z,12.89
2019-05-22T09:07:10.815Z,12.97
2019-05-22T09:08:10.926Z,13.07
2019-05-22T09:09:10.816Z,13.12
2019-05-22T09:10:10.815Z,13.26
2019-05-22T09:11:10.775Z,13.36
2019-05-22T09:12:10.775Z,13.44
2019-05-22T09:13:10.755Z,13.51
2019-05-22T09:14:10.818Z,13.55
2019-05-22T09:15:10.724Z,13.59
2019-05-22T09:16:10.730Z,13.62
2019-05-22T09:17:10.731Z,13.62
2019-05-22T09:18:10.715Z,13.64
2019-05-22T09:19:10.850Z,13.64
2019-05-22T09:20:10.943Z,13.67
2019-05-22T09:21:10.665Z,13.67
2019-05-22T09:22:10.667Z,13.66
2019-05-22T09:23:10.649Z,13.64
2019-05-22T09:24:10.758Z,13.64
2019-05-22T09:25:10.736Z,13.59
2019-05-22T09:26:10.619Z,13.51
2019-05-22T09:27:10.627Z,13.49
2019-05-22T09:28:10.599Z,13.46
2019-05-22T09:29:10.597Z,13.46
2019-05-22T09:30:10.587Z,13.48
2019-05-22T09:31:10.668Z,13.49
2019-05-22T09:32:10.538Z,13.51
2019-05-22T09:33:10.551Z,13.48
2019-05-22T09:34:10.669Z,13.51
2019-05-22T09:35:10.528Z,13.52
2019-05-22T09:36:10.656Z,13.54
2019-05-22T09:37:10.512Z,13.52
2019-05-22T09:38:10.480Z,13.45
2019-05-22T09:39:10.570Z,13.44
2019-05-22T09:40:10.479Z,13.44
2019-05-22T09:41:10.449Z,13.44
2019-05-22T09:42:10.461Z,13.44
2019-05-22T09:43:10.430Z,13.46
2019-05-22T09:44:10.440Z,13.45
2019-05-22T09:45:10.455Z,13.42
2019-05-22T09:46:10.409Z,13.44
2019-05-22T09:47:10.393Z,13.45
2019-05-22T09:48:10.384Z,13.44
2019-05-22T09:49:10.380Z,13.48
2019-05-22T09:50:10.428Z,13.51
2019-05-22T09:51:10.331Z,13.54
2019-05-22T09:52:10.342Z,13.51
2019-05-22T09:53:10.324Z,13.52
2019-05-22T09:54:10.325Z,13.54
2019-05-22T09:55:10.427Z,13.55
2019-05-22T09:56:10.300Z,13.55
2019-05-22T09:57:10.271Z,13.52
2019-05-22T09:58:10.261Z,13.51
2019-05-22T09:59:10.242Z,13.48
2019-05-22T10:00:10.234Z,13.48
2019-05-22T10:01:11.837Z,13.46
2019-05-22T10:02:10.232Z,13.49
2019-05-22T10:03:10.192Z,13.49
2019-05-22T10:04:10.213Z,13.48
2019-05-22T10:05:10.269Z,13.52
2019-05-22T10:06:10.329Z,13.55
2019-05-22T10:07:10.164Z,13.60
2019-05-22T10:08:10.175Z,13.66
2019-05-22T10:09:10.166Z,13.70
2019-05-22T10:10:10.174Z,13.77
2019-05-22T10:11:10.127Z,13.82
2019-05-22T10:12:10.103Z,13.87
2019-05-22T10:13:10.098Z,13.88
2019-05-22T10:14:10.093Z,13.88
2019-05-22T10:15:10.499Z,13.89
2019-05-22T10:16:10.057Z,13.88
2019-05-22T10:17:10.074Z,13.91
2019-05-22T10:18:10.175Z,13.91
2019-05-22T10:19:10.055Z,13.92
2019-05-22T10:20:10.305Z,13.91
2019-05-22T10:21:10.020Z,13.91
2019-05-22T10:22:10.135Z,13.89
2019-05-22T10:23:15.334Z,13.87
2019-05-22T10:24:11.109Z,13.88
2019-05-22T10:25:15.812Z,13.91
2019-05-22T10:26:10.968Z,13.91
2019-05-22T10:27:09.959Z,13.95
2019-05-22T10:28:09.965Z,13.99
2019-05-22T10:29:10.076Z,13.99
2019-05-22T10:30:09.926Z,14.04
2019-05-22T10:31:11.069Z,14.04
2019-05-22T10:32:09.926Z,14.02
2019-05-22T10:33:09.896Z,13.99
2019-05-22T10:34:09.892Z,13.99
2019-05-22T10:35:09.993Z,14.04
2019-05-22T10:36:09.867Z,14.12
2019-05-22T10:37:09.847Z,14.20
2019-05-22T10:38:09.831Z,14.29
2019-05-22T10:39:09.838Z,14.37
2019-05-22T10:40:09.799Z,14.40
2019-05-22T10:41:09.867Z,14.42
2019-05-22T10:42:09.811Z,14.43
2019-05-22T10:43:09.779Z,14.45
2019-05-22T10:44:09.759Z,14.47
2019-05-22T10:45:09.777Z,14.51
2019-05-22T10:46:09.783Z,14.58
2019-05-22T10:47:09.750Z,14.58
2019-05-22T10:48:09.839Z,14.57
2019-05-22T10:49:09.730Z,14.57
2019-05-22T10:50:09.728Z,14.61
2019-05-22T10:51:09.670Z,14.64
2019-05-22T10:52:09.690Z,14.64
2019-05-22T10:53:09.662Z,14.64
2019-05-22T10:54:09.658Z,14.69
2019-05-22T10:55:09.667Z,14.75
2019-05-22T10:56:09.683Z,14.80
2019-05-22T10:57:09.610Z,14.84
2019-05-22T10:58:09.765Z,14.91
2019-05-22T10:59:09.660Z,14.95
2019-05-22T11:00:09.644Z,14.99
2019-05-22T11:01:09.575Z,15.03
2019-05-22T11:02:09.587Z,15.02
2019-05-22T11:03:09.542Z,15.03
2019-05-22T11:04:09.522Z,15.09
2019-05-22T11:05:09.551Z,15.10
2019-05-22T11:06:09.566Z,15.11
2019-05-22T11:07:09.565Z,15.14
2019-05-22T11:08:09.505Z,15.16
2019-05-22T11:09:09.521Z,15.17
2019-05-22T11:10:09.513Z,15.21
2019-05-22T11:11:09.486Z,15.20
2019-05-22T11:12:09.464Z,15.23
2019-05-22T11:13:09.447Z,15.23
2019-05-22T11:14:09.731Z,15.19
2019-05-22T11:15:09.404Z,15.13
2019-05-22T11:16:09.555Z,15.14
2019-05-22T11:17:09.406Z,15.19
2019-05-22T11:18:09.395Z,15.20
2019-05-22T11:19:09.509Z,15.25
2019-05-22T11:20:09.395Z,15.28
2019-05-22T11:21:09.359Z,15.35
2019-05-22T11:22:09.339Z,15.43
2019-05-22T11:23:16.400Z,15.49
2019-05-22T11:24:09.322Z,15.57
2019-05-22T11:25:09.300Z,15.60
2019-05-22T11:26:09.325Z,15.67
2019-05-22T11:27:09.301Z,15.71
2019-05-22T11:28:09.290Z,15.69
2019-05-22T11:29:09.374Z,15.72
2019-05-22T11:30:09.282Z,15.75
2019-05-22T11:31:09.241Z,15.72
2019-05-22T11:32:09.302Z,15.71
2019-05-22T11:33:09.374Z,15.64
2019-05-22T11:34:09.235Z,15.54
2019-05-22T11:35:09.223Z,15.53
2019-05-22T11:36:09.194Z,15.54
2019-05-22T11:37:09.193Z,15.49
2019-05-22T11:38:09.183Z,15.46
2019-05-22T11:39:09.301Z,15.46
2019-05-22T11:40:09.166Z,15.50
2019-05-22T11:41:09.180Z,15.57
2019-05-22T11:42:09.144Z,15.65
2019-05-22T11:43:09.154Z,15.72
2019-05-22T11:44:09.105Z,15.68
2019-05-22T11:45:09.214Z,15.67
2019-05-22T11:46:09.095Z,15.67
2019-05-22T11:47:09.106Z,15.71
2019-05-22T11:48:09.100Z,15.71
2019-05-22T11:49:09.075Z,15.72
2019-05-22T11:50:09.086Z,15.75
2019-05-22T11:51:09.026Z,15.87
2019-05-22T11:52:09.036Z,16.01
2019-05-22T11:53:09.053Z,16.17
2019-05-22T11:54:09.923Z,16.30
2019-05-22T11:55:08.990Z,16.39
2019-05-22T11:56:09.108Z,16.41
2019-05-22T11:57:08.980Z,16.41
2019-05-22T11:58:08.968Z,16.39
2019-05-22T11:59:08.986Z,16.39
2019-05-22T12:00:09.431Z,16.42
2019-05-22T12:01:08.920Z,16.50
2019-05-22T12:02:08.909Z,16.66
2019-05-22T12:03:09.030Z,16.75
2019-05-22T12:04:08.909Z,16.86
2019-05-22T12:05:08.900Z,17.01
2019-05-22T12:06:08.880Z,17.11
2019-05-22T12:07:08.881Z,17.16
2019-05-22T12:08:08.991Z,17.22
2019-05-22T12:09:08.860Z,17.25
2019-05-22T12:10:08.952Z,17.31
2019-05-22T12:11:08.953Z,17.26
2019-05-22T12:12:08.902Z,17.25
2019-05-22T12:13:08.824Z,17.26
2019-05-22T12:14:08.796Z,17.36
2019-05-22T12:15:08.771Z,17.37
2019-05-22T12:16:08.785Z,17.46
2019-05-22T12:17:08.852Z,17.54
2019-05-22T12:18:08.793Z,17.63
2019-05-22T12:19:08.746Z,17.68
2019-05-22T12:20:08.723Z,17.68
2019-05-22T12:21:08.704Z,17.74
2019-05-22T12:22:08.714Z,17.82
2019-05-22T12:23:08.706Z,17.92
2019-05-22T12:24:13.493Z,17.95
2019-05-22T12:25:09.655Z,17.99
2019-05-22T12:26:08.668Z,18.14
2019-05-22T12:27:08.666Z,18.30
2019-05-22T12:28:08.745Z,18.45
2019-05-22T12:29:08.647Z,18.62
2019-05-22T12:30:08.782Z,18.81
2019-05-22T12:31:08.628Z,18.95
2019-05-22T12:32:08.588Z,19.10
2019-05-22T12:33:13.210Z,19.22
2019-05-22T12:34:09.597Z,19.32
2019-05-22T12:35:08.719Z,19.43
2019-05-22T12:36:08.568Z,19.48
2019-05-22T12:37:08.568Z,19.55
2019-05-22T12:38:08.528Z,19.55
2019-05-22T12:39:08.541Z,19.44
2019-05-22T12:40:08.535Z,19.31
2019-05-22T12:41:08.582Z,19.22
2019-05-22T12:42:08.491Z,19.18
2019-05-22T12:43:08.470Z,19.11
2019-05-22T12:44:08.481Z,18.98
2019-05-22T12:45:08.600Z,18.85
2019-05-22T12:46:08.492Z,18.80
2019-05-22T12:47:08.461Z,18.75
2019-05-22T12:48:08.472Z,18.76
2019-05-22T12:49:09.150Z,18.78
2019-05-22T12:50:08.431Z,18.84
2019-05-22T12:51:08.423Z,18.98
2019-05-22T12:52:08.507Z,19.13
2019-05-22T12:53:08.400Z,19.22
2019-05-22T12:54:08.388Z,19.25
2019-05-22T12:55:08.348Z,19.28
2019-05-22T12:56:08.456Z,19.32
2019-05-22T12:57:08.357Z,19.31
2019-05-22T12:58:08.427Z,19.29
2019-05-22T12:59:08.331Z,19.31
2019-05-22T13:00:08.318Z,19.28
2019-05-22T13:01:08.299Z,19.32
2019-05-22T13:02:08.307Z,19.29
2019-05-22T13:03:08.268Z,19.23
2019-05-22T13:04:08.288Z,19.19
2019-05-22T13:05:08.258Z,19.23
2019-05-22T13:06:08.346Z,19.32
2019-05-22T13:07:08.249Z,19.41
2019-05-22T13:08:08.248Z,19.47
2019-05-22T13:09:08.232Z,19.55
2019-05-22T13:10:08.209Z,19.54
2019-05-22T13:11:08.209Z,19.48
2019-05-22T13:12:08.204Z,19.44
2019-05-22T13:13:08.223Z,19.41
2019-05-22T13:14:08.161Z,19.39
2019-05-22T13:15:10.321Z,19.37
2019-05-22T13:16:08.243Z,19.37
2019-05-22T13:17:08.171Z,19.39
2019-05-22T13:18:08.205Z,19.44
2019-05-22T13:19:08.134Z,19.55
2019-05-22T13:20:08.125Z,19.62
2019-05-22T13:21:08.082Z,19.65
2019-05-22T13:22:08.176Z,19.59
2019-05-22T13:23:08.098Z,19.48
2019-05-22T13:24:08.079Z,19.40
2019-05-22T13:25:08.043Z,19.36
2019-05-22T13:26:08.071Z,19.37
2019-05-22T13:27:08.141Z,19.37
2019-05-22T13:28:08.014Z,19.36
2019-05-22T13:29:08.024Z,19.33
2019-05-22T13:30:08.226Z,19.31
2019-05-22T13:31:07.977Z,19.28
2019-05-22T13:32:08.088Z,19.16
2019-05-22T13:33:07.991Z,19.02
2019-05-22T13:34:07.936Z,18.92
2019-05-22T13:35:07.963Z,18.84
2019-05-22T13:36:08.069Z,18.73
2019-05-22T13:37:08.019Z,18.67
2019-05-22T13:38:07.911Z,18.60
2019-05-22T13:39:07.917Z,18.52
2019-05-22T13:40:18.115Z,18.54
2019-05-22T13:41:08.882Z,18.55
2019-05-22T13:42:07.952Z,18.60
2019-05-22T13:43:07.869Z,18.65
2019-05-22T13:44:07.860Z,18.72
2019-05-22T13:45:07.828Z,18.81
2019-05-22T13:46:07.860Z,18.88
2019-05-22T13:47:07.950Z,18.98
2019-05-22T13:48:07.942Z,19.07
2019-05-22T13:49:07.843Z,19.21
2019-05-22T13:50:07.781Z,19.36
2019-05-22T13:51:07.775Z,19.48
2019-05-22T13:52:07.792Z,19.66
2019-05-22T13:53:07.741Z,19.71
2019-05-22T13:54:07.873Z,19.77
2019-05-22T13:55:07.727Z,19.84
2019-05-22T13:56:07.749Z,19.88
2019-05-22T13:57:07.824Z,19.98
2019-05-22T13:58:07.727Z,20.02
2019-05-22T13:59:07.704Z,20.14
2019-05-22T14:00:09.426Z,20.23
2019-05-22T14:01:07.654Z,20.24
2019-05-22T14:02:07.655Z,20.29
2019-05-22T14:03:07.807Z,20.29
2019-05-22T14:04:07.660Z,20.29
2019-05-22T14:05:07.648Z,20.36
2019-05-22T14:06:07.635Z,20.42
2019-05-22T14:07:07.626Z,20.55
2019-05-22T14:08:07.697Z,20.66
2019-05-22T14:09:07.630Z,20.79